Time;durP1;ratioP1;P1;durP2;ratioP2;P2;SDS_P1;SDS_P2;PMS_P1;PMS_P2;Temp;Humidity;BMP_temperature;BMP_pressure;BME280_temperature;BME280_humidity;BME280_pressure;Samples;Min_cycle;Max_cycle;Signal;HPM_P1;HPM_P2
2022/04/05 00:00:07;;;;;;;9.00;6.90;;;9.00;99.90;;;;;;5011478;28;20027;-72
2022/04/05 00:02:33;;;;;;;13.32;8.43;;;8.90;99.90;;;;;;5009048;28;20066;-72
2022/04/05 00:04:59;;;;;;;11.05;6.93;;;8.90;99.90;;;;;;5012244;28;20034;-72
2022/04/05 00:07:24;;;;;;;11.25;7.40;;;9.00;99.90;;;;;;5013464;28;20045;-72
2022/04/05 00:09:50;;;;;;;8.90;7.47;;;9.00;99.90;;;;;;5009913;28;20057;-72
2022/04/05 00:12:20;;;;;;;9.75;7.63;;;9.00;99.90;;;;;;5011633;28;20033;-71
2022/04/05 00:14:46;;;;;;;7.40;6.75;;;8.90;99.90;;;;;;5013084;28;20064;-70
2022/04/05 00:17:12;;;;;;;9.80;7.53;;;9.00;99.90;;;;;;5009350;28;20501;-72
2022/04/05 00:19:38;;;;;;;11.07;6.28;;;9.00;99.90;;;;;;5009189;28;20030;-72
2022/04/05 00:22:04;;;;;;;7.68;6.75;;;8.90;99.90;;;;;;5010871;28;20030;-71
2022/04/05 00:24:30;;;;;;;10.13;7.20;;;9.00;99.90;;;;;;5010146;28;20655;-72
2022/04/05 00:26:57;;;;;;;12.98;7.38;;;9.00;99.90;;;;;;5003235;28;20038;-71
2022/04/05 00:29:24;;;;;;;13.63;7.40;;;9.00;99.90;;;;;;5003754;28;20034;-73
2022/04/05 00:31:50;;;;;;;8.40;6.75;;;9.10;99.90;;;;;;5001192;28;20025;-71
2022/04/05 00:34:16;;;;;;;7.40;6.78;;;9.20;99.90;;;;;;5008907;28;20088;-71
2022/04/05 00:36:41;;;;;;;7.30;6.45;;;9.10;99.90;;;;;;5005241;28;20135;-71
2022/04/05 00:39:07;;;;;;;10.63;7.90;;;9.00;99.90;;;;;;5006969;28;20033;-72
2022/04/05 00:41:33;;;;;;;7.55;6.68;;;9.00;99.90;;;;;;5002253;28;20025;-72
2022/04/05 00:43:59;;;;;;;8.65;7.75;;;9.00;99.90;;;;;;5006765;28;20613;-71
2022/04/05 00:46:24;;;;;;;8.20;7.18;;;9.10;99.90;;;;;;5003992;28;20308;-70
2022/04/05 00:48:57;;;;;;;9.35;7.72;;;9.10;99.90;;;;;;5006831;28;20026;-69
2022/04/05 00:51:23;;;;;;;;;;;9.10;99.90;;;;;;5010021;28;20371;-71
2022/04/05 00:53:52;;;;;;;8.45;7.07;;;9.10;99.90;;;;;;5007393;28;19915;-71
2022/04/05 00:56:20;;;;;;;10.07;8.07;;;9.10;99.90;;;;;;5006313;28;20036;-70
2022/04/05 00:58:52;;;;;;;12.73;7.90;;;9.10;99.90;;;;;;5004941;28;20029;-70
2022/04/05 01:01:21;;;;;;;12.50;7.53;;;9.20;99.90;;;;;;5009915;28;20494;-72
2022/04/05 01:03:49;;;;;;;15.75;8.32;;;9.20;99.90;;;;;;5007494;28;20037;-70
2022/04/05 01:06:22;;;;;;;11.43;7.43;;;9.20;99.90;;;;;;5009251;28;20030;-72
2022/04/05 01:08:49;;;;;;;11.20;7.82;;;9.20;99.90;;;;;;5009056;28;20569;-70
2022/04/05 01:11:15;;;;;;;10.02;7.03;;;9.10;99.90;;;;;;5008871;28;20558;-72
2022/04/05 01:13:41;;;;;;;14.98;7.45;;;9.00;99.90;;;;;;5010415;28;20092;-71
2022/04/05 01:16:07;;;;;;;8.60;7.72;;;9.00;99.90;;;;;;5004878;28;20617;-72
2022/04/05 01:18:34;;;;;;;7.90;6.72;;;9.00;99.90;;;;;;5009495;28;20036;-72
2022/04/05 01:21:00;;;;;;;7.85;6.45;;;9.10;99.90;;;;;;5008930;28;20030;-71
2022/04/05 01:23:26;;;;;;;9.57;7.53;;;9.10;99.90;;;;;;5010121;28;20037;-74
2022/04/05 01:25:52;;;;;;;12.52;7.40;;;9.10;99.90;;;;;;5007522;28;20414;-71
2022/04/05 01:28:20;;;;;;;9.23;7.57;;;9.20;99.90;;;;;;5007714;28;20115;-71
2022/04/05 01:30:46;;;;;;;11.68;7.50;;;9.10;99.90;;;;;;5013962;28;20053;-71
2022/04/05 01:33:12;;;;;;;7.10;6.40;;;9.10;99.90;;;;;;5009250;28;20038;-70
2022/04/05 01:35:39;;;;;;;9.43;6.47;;;9.10;99.90;;;;;;5010445;28;20485;-69
2022/04/05 01:38:06;;;;;;;11.32;6.57;;;9.10;99.90;;;;;;5008913;28;20113;-69
2022/04/05 01:40:32;;;;;;;10.63;7.80;;;9.10;99.90;;;;;;5008114;28;20068;-72
2022/04/05 01:42:59;;;;;;;9.18;7.68;;;9.00;99.90;;;;;;5003278;28;20072;-69
2022/04/05 01:45:24;;;;;;;10.82;7.47;;;9.00;99.90;;;;;;5004808;28;20485;-71
2022/04/05 01:47:51;;;;;;;8.93;7.35;;;9.10;99.90;;;;;;5007809;28;20045;-71
2022/04/05 01:50:17;;;;;;;10.30;8.10;;;9.20;99.90;;;;;;5005939;28;20037;-71
2022/04/05 01:52:42;;;;;;;11.13;7.80;;;9.20;99.90;;;;;;5006584;28;20402;-69
2022/04/05 01:55:08;;;;;;;9.90;7.22;;;9.20;99.90;;;;;;5005980;28;20505;-72
2022/04/05 01:57:34;;;;;;;9.38;7.13;;;9.30;99.90;;;;;;5008464;28;20018;-72
2022/04/05 02:00:02;;;;;;;10.02;7.95;;;9.30;99.90;;;;;;5007626;28;20033;-70
2022/04/05 02:02:28;;;;;;;7.72;6.93;;;9.30;99.90;;;;;;5004774;28;20026;-71
2022/04/05 02:04:54;;;;;;;15.63;8.35;;;9.30;99.90;;;;;;5008532;28;20030;-71
2022/04/05 02:07:20;;;;;;;10.88;7.07;;;9.30;99.90;;;;;;5008668;28;20025;-70
2022/04/05 02:09:48;;;;;;;13.27;6.53;;;9.20;99.90;;;;;;5008583;28;20386;-70
2022/04/05 02:12:15;;;;;;;15.90;8.60;;;9.20;99.90;;;;;;5009726;28;20044;-70
2022/04/05 02:14:41;;;;;;;17.48;6.88;;;9.20;99.90;;;;;;5009357;28;20022;-71
2022/04/05 02:17:07;;;;;;;18.52;7.40;;;9.20;99.90;;;;;;5009549;28;20026;-71
2022/04/05 02:19:34;;;;;;;12.63;7.53;;;9.20;99.90;;;;;;5007734;28;20025;-71
2022/04/05 02:22:00;;;;;;;13.80;7.18;;;9.20;99.90;;;;;;5008685;28;20046;-70
2022/04/05 02:24:26;;;;;;;17.55;9.70;;;9.20;99.90;;;;;;5006278;28;20020;-72
2022/04/05 02:26:52;;;;;;;14.60;8.38;;;9.20;99.90;;;;;;5008813;28;20200;-70
2022/04/05 02:29:18;;;;;;;10.30;6.65;;;9.20;99.90;;;;;;5011029;28;20040;-71
2022/04/05 02:31:43;;;;;;;9.15;7.82;;;9.20;99.90;;;;;;5007785;28;20025;-70
2022/04/05 02:34:09;;;;;;;13.20;7.05;;;9.20;99.90;;;;;;5011184;28;20039;-72
2022/04/05 02:36:35;;;;;;;10.95;7.60;;;9.20;99.90;;;;;;5011282;28;20161;-71
2022/04/05 02:39:02;;;;;;;8.02;7.22;;;9.20;99.90;;;;;;5009092;28;20091;-71
2022/04/05 02:41:28;;;;;;;15.48;7.70;;;9.20;99.90;;;;;;5011547;28;20094;-71
2022/04/05 02:43:54;;;;;;;14.02;8.82;;;9.20;99.90;;;;;;5006428;28;20114;-73
2022/04/05 02:46:20;;;;;;;19.10;8.50;;;9.10;99.90;;;;;;5005678;28;20445;-71
2022/04/05 02:48:46;;;;;;;10.07;7.47;;;9.10;99.90;;;;;;5008641;28;20037;-70
2022/04/05 02:51:13;;;;;;;20.35;8.27;;;9.00;99.90;;;;;;5007947;28;20101;-71
2022/04/05 02:53:39;;;;;;;10.73;7.55;;;9.10;99.90;;;;;;5008330;28;20108;-71
2022/04/05 02:56:07;;;;;;;9.80;8.48;;;9.00;99.90;;;;;;5008854;28;20034;-73
2022/04/05 02:58:37;;;;;;;16.88;7.75;;;8.90;99.90;;;;;;5002140;28;20080;-72
2022/04/05 03:01:04;;;;;;;11.95;7.95;;;8.90;99.90;;;;;;5006697;28;20026;-72
2022/04/05 03:03:30;;;;;;;14.20;8.63;;;8.90;99.90;;;;;;5014498;28;20026;-72
2022/04/05 03:05:56;;;;;;;18.58;7.63;;;8.90;99.90;;;;;;5016914;28;20034;-71
2022/04/05 03:08:22;;;;;;;22.75;9.68;;;9.00;99.90;;;;;;5012043;28;20118;-72
2022/04/05 03:10:48;;;;;;;19.90;8.27;;;9.00;99.90;;;;;;5011884;28;20482;-71
2022/04/05 03:13:14;;;;;;;13.90;7.22;;;9.00;99.90;;;;;;5013408;28;20030;-71
2022/04/05 03:15:40;;;;;;;16.70;8.73;;;8.90;99.90;;;;;;5012483;28;20052;-69
2022/04/05 03:18:05;;;;;;;15.23;7.95;;;8.90;99.90;;;;;;5011725;28;20034;-70
2022/04/05 03:20:32;;;;;;;13.30;8.88;;;8.80;99.90;;;;;;5011906;28;20235;-70
2022/04/05 03:23:00;;;;;;;15.30;8.93;;;8.70;99.90;;;;;;5009078;28;20029;-70
2022/04/05 03:25:27;;;;;;;9.90;8.63;;;8.70;99.90;;;;;;5009889;28;20685;-70
2022/04/05 03:27:53;;;;;;;14.85;11.32;;;8.70;99.90;;;;;;5012700;28;20121;-71
2022/04/05 03:30:20;;;;;;;16.73;9.35;;;8.80;99.90;;;;;;5013531;28;20034;-72
2022/04/05 03:32:46;;;;;;;9.50;8.45;;;8.70;99.90;;;;;;5010472;28;20687;-70
2022/04/05 03:35:12;;;;;;;15.88;7.78;;;8.80;99.90;;;;;;5012220;28;20042;-72
2022/04/05 03:37:38;;;;;;;8.85;8.05;;;8.80;99.90;;;;;;5013435;28;20022;-72
2022/04/05 03:40:06;;;;;;;8.45;7.25;;;8.80;99.90;;;;;;5013791;28;20156;-72
2022/04/05 03:42:32;;;;;;;8.60;7.28;;;8.80;99.90;;;;;;5013338;28;20018;-73
2022/04/05 03:44:58;;;;;;;12.43;8.40;;;8.70;99.90;;;;;;5010241;28;20111;-70
2022/04/05 03:47:26;;;;;;;9.05;6.80;;;8.70;99.90;;;;;;5005845;28;20485;-72
2022/04/05 03:49:52;;;;;;;8.52;7.50;;;8.60;99.90;;;;;;5005431;28;20044;-73
2022/04/05 03:52:17;;;;;;;10.20;8.98;;;8.50;99.90;;;;;;5008936;28;20030;-71
2022/04/05 03:54:43;;;;;;;15.05;8.73;;;8.60;99.90;;;;;;5004665;28;20034;-71
2022/04/05 03:57:09;;;;;;;11.10;8.60;;;8.60;99.90;;;;;;5007321;28;20057;-70
2022/04/05 03:59:34;;;;;;;10.05;7.28;;;8.70;99.90;;;;;;5005311;28;20286;-70
2022/04/05 04:02:00;;;;;;;14.27;8.30;;;8.70;99.90;;;;;;5010909;28;20038;-72
2022/04/05 04:04:26;;;;;;;12.80;8.68;;;8.70;99.90;;;;;;5010561;28;20068;-71
2022/04/05 04:06:52;;;;;;;8.65;7.60;;;8.80;99.90;;;;;;5011321;28;20037;-70
2022/04/05 04:09:18;;;;;;;9.05;7.60;;;8.80;99.90;;;;;;5009580;28;20038;-70
2022/04/05 04:11:45;;;;;;;9.18;7.32;;;8.90;99.90;;;;;;5009437;28;20033;-70
2022/04/05 04:14:11;;;;;;;11.88;8.07;;;8.90;99.90;;;;;;5008875;28;20108;-70
2022/04/05 04:16:37;;;;;;;17.98;8.52;;;8.80;99.90;;;;;;5010476;28;20101;-71
2022/04/05 04:19:03;;;;;;;11.73;8.70;;;9.00;99.90;;;;;;5009890;28;20498;-70
2022/04/05 04:21:29;;;;;;;10.70;8.75;;;9.00;99.90;;;;;;5011563;28;20493;-70
2022/04/05 04:23:55;;;;;;;12.55;8.35;;;8.90;99.90;;;;;;5009402;28;20034;-71
2022/04/05 04:26:21;;;;;;;12.18;9.18;;;9.00;99.90;;;;;;5011931;28;20080;-70
2022/04/05 04:28:51;;;;;;;13.98;8.60;;;9.00;99.90;;;;;;5008314;28;20890;-71
2022/04/05 04:31:17;;;;;;;11.20;8.45;;;9.10;99.90;;;;;;5024863;28;20065;-71
2022/04/05 04:33:43;;;;;;;19.27;9.88;;;9.10;99.90;;;;;;5011897;28;20022;-72
2022/04/05 04:36:09;;;;;;;14.50;8.77;;;9.10;99.90;;;;;;5010112;28;20437;-73
2022/04/05 04:38:35;;;;;;;15.02;8.82;;;9.00;99.90;;;;;;5010469;28;20491;-71
2022/04/05 04:41:01;;;;;;;13.27;8.88;;;9.00;99.90;;;;;;5008089;28;20030;-72
2022/04/05 04:43:27;;;;;;;13.32;10.50;;;9.00;99.90;;;;;;5010623;28;20033;-72
2022/04/05 04:45:54;;;;;;;9.73;8.82;;;9.00;99.90;;;;;;5010690;28;20033;-73
2022/04/05 04:48:21;;;;;;;18.95;9.23;;;8.90;99.90;;;;;;5006436;28;20181;-72
2022/04/05 04:50:50;;;;;;;14.45;8.10;;;8.90;99.90;;;;;;5009940;28;20165;-70
2022/04/05 04:53:16;;;;;;;22.30;9.10;;;8.80;99.90;;;;;;5008275;28;20113;-71
2022/04/05 04:55:42;;;;;;;26.60;9.32;;;8.70;99.90;;;;;;5005093;28;20071;-71
2022/04/05 04:58:08;;;;;;;22.88;9.25;;;8.60;99.90;;;;;;5008236;28;20117;-71
2022/04/05 05:00:34;;;;;;;16.60;8.98;;;8.60;99.90;;;;;;5009591;28;20503;-71
2022/04/05 05:02:59;;;;;;;13.88;9.45;;;8.50;99.90;;;;;;5007609;28;20038;-72
2022/04/05 05:05:25;;;;;;;16.23;8.98;;;8.50;99.90;;;;;;5008987;28;20037;-70
2022/04/05 05:07:52;;;;;;;14.77;9.32;;;8.50;99.90;;;;;;5010972;28;20736;-73
2022/04/05 05:10:20;;;;;;;23.08;10.45;;;8.50;99.90;;;;;;5009564;28;20038;-71
2022/04/05 05:12:46;;;;;;;18.92;8.40;;;8.60;99.90;;;;;;5010434;28;20029;-72
2022/04/05 05:15:18;;;;;;;21.58;11.85;;;8.60;99.90;;;;;;5012687;28;20087;-72
2022/04/05 05:17:45;;;;;;;13.10;9.30;;;8.70;99.90;;;;;;5008265;28;20064;-72
2022/04/05 05:20:12;;;;;;;10.77;8.60;;;8.60;99.90;;;;;;5010001;28;20038;-70
2022/04/05 05:22:39;;;;;;;9.95;8.70;;;8.60;99.90;;;;;;5004723;28;20022;-69
2022/04/05 05:25:07;;;;;;;14.85;9.18;;;8.70;99.90;;;;;;5003569;28;20581;-71
2022/04/05 05:27:36;;;;;;;21.27;10.05;;;8.80;99.90;;;;;;5003396;28;20121;-72
2022/04/05 05:30:03;;;;;;;11.20;8.30;;;8.90;99.90;;;;;;5003450;28;20026;-73
2022/04/05 05:32:28;;;;;;;12.50;9.30;;;8.90;99.90;;;;;;5007648;28;20033;-71
2022/04/05 05:34:54;;;;;;;9.55;8.65;;;9.00;99.90;;;;;;5005820;28;20359;-65
2022/04/05 05:37:21;;;;;;;21.73;8.27;;;9.00;99.90;;;;;;5010375;28;20143;-64
2022/04/05 05:39:47;;;;;;;12.40;8.65;;;9.20;99.90;;;;;;5006885;28;20026;-66
2022/04/05 05:42:13;;;;;;;20.80;7.78;;;9.20;99.90;;;;;;5007121;28;20038;-65
2022/04/05 05:44:39;;;;;;;20.08;10.10;;;9.20;99.90;;;;;;5009667;28;20394;-65
2022/04/05 05:47:06;;;;;;;10.63;8.10;;;9.20;99.90;;;;;;5010082;28;20034;-63
2022/04/05 05:49:32;;;;;;;19.88;8.85;;;9.10;99.90;;;;;;5011851;28;20033;-64
2022/04/05 05:51:58;;;;;;;13.75;8.80;;;9.20;99.90;;;;;;5012371;28;20030;-65
2022/04/05 05:54:24;;;;;;;13.38;8.55;;;9.30;99.90;;;;;;5012378;28;20036;-66
2022/04/05 05:56:59;;;;;;;10.95;8.60;;;9.30;99.90;;;;;;5010914;28;20105;-67
2022/04/05 05:59:28;;;;;;;17.42;9.05;;;9.30;99.90;;;;;;5009162;28;20022;-64
2022/04/05 06:01:56;;;;;;;9.63;8.48;;;9.40;99.90;;;;;;5009952;28;20069;-64
2022/04/05 06:04:24;;;;;;;14.88;8.88;;;9.40;99.90;;;;;;5009555;28;20053;-64
2022/04/05 06:06:51;;;;;;;11.30;9.02;;;9.40;99.90;;;;;;5024275;28;20438;-65
2022/04/05 06:09:16;;;;;;;11.35;8.80;;;9.50;99.90;;;;;;5009000;28;20029;-65
2022/04/05 06:11:42;;;;;;;9.60;8.27;;;9.50;99.90;;;;;;5010095;28;20049;-65
2022/04/05 06:14:08;;;;;;;15.70;8.68;;;9.50;99.90;;;;;;5009306;28;20040;-66
2022/04/05 06:16:54;;;;;;;13.02;7.75;;;9.50;99.90;;;;;;5009585;28;20390;-64
2022/04/05 06:19:45;;;;;;;12.90;7.93;;;9.60;99.90;;;;;;5006175;28;20093;-65
2022/04/05 06:22:16;;;;;;;13.70;8.82;;;9.60;99.90;;;;;;5009244;28;20054;-66
2022/04/05 06:24:46;;;;;;;15.55;7.75;;;9.60;99.90;;;;;;5011677;28;20108;-65
2022/04/05 06:27:14;;;;;;;10.18;7.68;;;9.70;99.90;;;;;;5010390;28;20037;-66
2022/04/05 06:29:45;;;;;;;18.33;8.38;;;9.80;99.90;;;;;;5010182;28;20053;-67
2022/04/05 06:32:11;;;;;;;13.60;9.38;;;9.80;99.90;;;;;;5010175;28;20035;-66
2022/04/05 06:34:37;;;;;;;10.70;7.68;;;9.90;99.90;;;;;;5008248;28;20375;-66
2022/04/05 06:37:03;;;;;;;11.43;7.43;;;9.90;99.90;;;;;;5010339;28;20034;-66
2022/04/05 06:39:29;;;;;;;13.57;8.55;;;9.90;99.90;;;;;;4996067;28;20393;-65
2022/04/05 06:41:55;;;;;;;16.52;8.73;;;10.00;99.90;;;;;;5013921;28;20021;-66
2022/04/05 06:44:21;;;;;;;10.27;8.27;;;10.10;99.90;;;;;;5007484;28;20037;-66
2022/04/05 06:46:46;;;;;;;15.57;8.32;;;10.20;99.90;;;;;;5010046;28;20122;-67
2022/04/05 06:49:12;;;;;;;10.45;8.85;;;10.30;99.90;;;;;;5011910;28;20100;-67
2022/04/05 06:51:38;;;;;;;10.57;7.53;;;10.30;99.90;;;;;;5013345;28;20025;-66
2022/04/05 06:54:05;;;;;;;16.02;8.73;;;10.40;99.90;;;;;;5013496;28;20117;-66
2022/04/05 06:56:31;;;;;;;13.93;7.72;;;10.60;99.90;;;;;;5009425;28;20117;-66
2022/04/05 06:58:56;;;;;;;11.68;8.32;;;10.60;99.90;;;;;;5010669;28;20104;-68
2022/04/05 07:01:22;;;;;;;9.13;7.93;;;10.60;99.90;;;;;;5012336;28;20687;-65
2022/04/05 07:03:48;;;;;;;19.00;7.75;;;10.70;99.90;;;;;;5011136;28;20026;-66
2022/04/05 07:06:14;;;;;;;13.50;8.65;;;10.80;99.90;;;;;;5011039;28;20100;-67
2022/04/05 07:08:39;;;;;;;21.60;9.02;;;10.80;99.90;;;;;;5009269;28;20156;-66
2022/04/05 07:11:05;;;;;;;17.35;8.20;;;10.70;99.90;;;;;;5010181;28;20037;-67
2022/04/05 07:13:31;;;;;;;13.60;7.13;;;10.80;99.90;;;;;;5009774;28;20040;-67
2022/04/05 07:15:57;;;;;;;16.23;7.30;;;10.80;99.90;;;;;;5012066;28;20471;-66
2022/04/05 07:18:23;;;;;;;9.38;7.65;;;10.90;99.90;;;;;;5010886;28;20038;-65
2022/04/05 07:20:50;;;;;;;10.55;7.63;;;11.10;99.90;;;;;;5011845;28;20053;-66
2022/04/05 07:23:17;;;;;;;15.43;7.28;;;11.30;99.90;;;;;;5011578;28;20022;-66
2022/04/05 07:25:42;;;;;;;8.60;7.75;;;11.40;99.90;;;;;;5013348;28;20039;-65
2022/04/05 07:28:08;;;;;;;8.68;7.47;;;11.50;99.90;;;;;;5005765;28;20120;-67
2022/04/05 07:30:34;;;;;;;10.73;7.80;;;11.70;99.90;;;;;;5008863;28;20022;-67
2022/04/05 07:33:00;;;;;;;9.90;6.82;;;11.80;99.90;;;;;;5008207;28;20034;-66
2022/04/05 07:35:27;;;;;;;15.38;8.10;;;11.90;99.90;;;;;;5011186;28;20057;-66
2022/04/05 07:37:54;;;;;;;12.27;8.95;;;11.90;99.90;;;;;;5012130;28;20490;-65
2022/04/05 07:40:20;;;;;;;16.00;8.60;;;12.00;99.90;;;;;;5013121;28;20032;-67
2022/04/05 07:42:46;;;;;;;10.43;8.98;;;12.10;99.90;;;;;;5010502;28;20485;-66
2022/04/05 07:45:14;;;;;;;9.20;8.23;;;12.10;99.90;;;;;;5011605;28;20467;-66
2022/04/05 07:47:40;;;;;;;8.48;6.78;;;12.20;99.90;;;;;;5000430;28;20030;-66
2022/04/05 07:50:08;;;;;;;10.80;8.85;;;12.30;99.90;;;;;;4992017;28;20030;-66
2022/04/05 07:52:33;;;;;;;11.00;7.85;;;12.40;99.90;;;;;;4992442;28;20109;-65
2022/04/05 07:55:00;;;;;;;10.82;8.45;;;12.50;99.90;;;;;;4992351;28;20165;-65
2022/04/05 07:57:25;;;;;;;14.20;7.80;;;12.70;99.90;;;;;;4994288;28;20041;-66
2022/04/05 07:59:51;;;;;;;9.15;8.27;;;12.80;99.90;;;;;;4993720;28;20027;-67
2022/04/05 08:02:18;;;;;;;8.73;7.80;;;12.90;99.90;;;;;;4992291;28;20471;-66
2022/04/05 08:04:44;;;;;;;11.13;8.50;;;12.60;99.90;;;;;;4993690;28;20029;-68
2022/04/05 08:07:10;;;;;;;16.17;8.40;;;12.50;99.90;;;;;;4993793;28;20022;-66
2022/04/05 08:09:35;;;;;;;11.18;8.57;;;12.40;99.90;;;;;;4991979;28;20030;-67
2022/04/05 08:12:02;;;;;;;9.55;8.48;;;12.30;99.90;;;;;;4992142;28;20395;-66
2022/04/05 08:14:29;;;;;;;12.73;9.07;;;12.10;99.90;;;;;;4993494;28;20388;-66
2022/04/05 08:16:57;;;;;;;11.25;9.27;;;12.00;99.90;;;;;;4992123;28;20068;-66
2022/04/05 08:19:24;;;;;;;9.65;8.70;;;12.00;99.90;;;;;;4993266;28;20035;-65
2022/04/05 08:21:50;;;;;;;10.93;8.30;;;12.00;99.90;;;;;;4993280;28;20113;-67
2022/04/05 08:24:17;;;;;;;9.18;8.20;;;12.00;99.90;;;;;;4993055;28;20502;-65
2022/04/05 08:26:43;;;;;;;13.27;9.27;;;12.10;99.90;;;;;;4993202;28;20569;-67
2022/04/05 08:29:09;;;;;;;9.38;8.30;;;12.10;99.90;;;;;;4993088;28;20030;-68
2022/04/05 08:31:35;;;;;;;13.73;11.20;;;12.20;99.90;;;;;;4993654;28;20026;-66
2022/04/05 08:34:00;;;;;;;11.07;9.98;;;12.10;99.90;;;;;;4993220;28;20030;-66
2022/04/05 08:36:26;;;;;;;11.50;9.20;;;12.10;99.90;;;;;;4992904;28;20509;-66
2022/04/05 08:38:52;;;;;;;19.73;10.40;;;12.20;99.90;;;;;;4992724;28;20026;-66
2022/04/05 08:41:20;;;;;;;13.65;10.07;;;12.30;99.90;;;;;;4993001;28;20027;-65
2022/04/05 08:43:48;;;;;;;10.00;8.43;;;12.30;99.90;;;;;;4993000;28;20018;-66
2022/04/05 08:46:15;;;;;;;10.43;9.00;;;12.30;99.90;;;;;;4992704;28;20034;-65
2022/04/05 08:48:42;;;;;;;14.90;10.20;;;12.10;99.90;;;;;;4991373;28;20026;-66
2022/04/05 08:51:08;;;;;;;12.95;10.63;;;12.10;99.90;;;;;;4991396;28;20030;-66
2022/04/05 08:53:34;;;;;;;11.48;10.27;;;12.10;99.90;;;;;;4990487;28;20110;-65
2022/04/05 08:56:01;;;;;;;12.00;10.32;;;12.00;99.90;;;;;;4992444;28;20030;-64
2022/04/05 08:58:26;;;;;;;13.73;10.75;;;12.10;99.90;;;;;;4992719;28;20098;-65
2022/04/05 09:00:53;;;;;;;13.82;11.88;;;12.00;99.90;;;;;;4990186;28;20109;-64
2022/04/05 09:03:19;;;;;;;12.15;10.75;;;11.90;99.90;;;;;;4991002;28;20018;-65
2022/04/05 09:05:45;;;;;;;13.98;11.30;;;11.80;99.90;;;;;;4992370;28;20026;-64
2022/04/05 09:08:31;;;;;;;13.40;10.88;;;11.90;99.90;;;;;;4992205;28;20026;-64
2022/04/05 09:11:03;;;;;;;13.18;10.77;;;12.00;99.90;;;;;;4991973;28;20482;-64
2022/04/05 09:13:29;;;;;;;10.32;9.30;;;12.10;99.90;;;;;;4992470;28;20105;-64
2022/04/05 09:15:59;;;;;;;13.23;10.60;;;12.10;99.90;;;;;;4990748;28;20442;-63
2022/04/05 09:18:31;;;;;;;15.38;12.18;;;12.10;99.90;;;;;;4992517;28;20038;-63
2022/04/05 09:20:57;;;;;;;12.35;10.98;;;12.20;99.90;;;;;;4991007;28;20482;-63
2022/04/05 09:23:23;;;;;;;10.02;9.10;;;12.30;99.90;;;;;;4991156;28;20085;-64
2022/04/05 09:25:57;;;;;;;21.00;15.90;;;12.30;99.90;;;;;;4992909;28;20034;-63
2022/04/05 09:28:31;;;;;;;12.65;10.60;;;12.30;99.90;;;;;;4992242;28;20077;-63
2022/04/05 09:31:03;;;;;;;17.60;11.98;;;12.30;99.90;;;;;;4992250;28;20026;-64
2022/04/05 09:33:31;;;;;;;13.00;11.77;;;12.40;99.90;;;;;;4992704;28;20523;-65
2022/04/05 09:36:07;;;;;;;13.85;10.57;;;12.40;99.90;;;;;;4992292;28;20039;-64
2022/04/05 09:38:34;;;;;;;13.23;11.63;;;12.30;99.90;;;;;;4990977;28;20032;-65
2022/04/05 09:41:13;;;;;;;13.32;11.25;;;12.30;99.90;;;;;;4990637;28;20029;-65
2022/04/05 09:43:53;;;;;;;15.93;11.35;;;12.30;99.90;;;;;;4991997;28;20065;-64
2022/04/05 09:46:20;;;;;;;16.95;11.50;;;12.40;99.90;;;;;;4990864;28;20033;-65
2022/04/05 09:48:46;;;;;;;14.13;11.68;;;12.50;99.90;;;;;;4991844;28;20116;-64
2022/04/05 09:51:14;;;;;;;15.07;13.48;;;12.40;99.90;;;;;;4990506;28;20022;-64
2022/04/05 09:53:43;;;;;;;14.55;12.75;;;12.40;99.90;;;;;;4991523;28;20022;-64
2022/04/05 09:56:19;;;;;;;16.30;13.52;;;12.30;99.90;;;;;;4991539;28;20019;-63
2022/04/05 09:58:51;;;;;;;17.73;12.30;;;12.40;99.90;;;;;;4991610;28;20022;-65
2022/04/05 10:01:19;;;;;;;15.45;12.02;;;12.50;99.90;;;;;;4991894;28;20073;-64
2022/04/05 10:04:05;;;;;;;15.18;13.55;;;12.60;99.90;;;;;;4992505;28;20402;-63
2022/04/05 10:06:38;;;;;;;18.08;13.02;;;12.60;99.90;;;;;;4991334;28;20038;-64
2022/04/05 10:09:04;;;;;;;16.23;14.52;;;12.40;99.90;;;;;;4990964;28;20033;-64
2022/04/05 10:11:36;;;;;;;15.73;14.15;;;12.40;99.90;;;;;;4990847;28;20081;-63
2022/04/05 10:14:03;;;;;;;19.48;15.40;;;12.60;99.90;;;;;;4990967;28;20049;-63
2022/04/05 10:16:31;;;;;;;14.77;13.15;;;12.70;99.90;;;;;;4991048;28;20034;-64
2022/04/05 10:18:59;;;;;;;15.88;14.27;;;12.60;99.90;;;;;;4991069;28;20430;-63
2022/04/05 10:21:27;;;;;;;21.65;14.00;;;12.50;99.90;;;;;;4991331;28;20092;-63
2022/04/05 10:23:55;;;;;;;17.02;14.60;;;12.50;99.90;;;;;;4990016;28;20486;-63
2022/04/05 10:26:30;;;;;;;18.30;16.13;;;12.60;99.90;;;;;;4991337;28;20125;-63
2022/04/05 10:28:58;;;;;;;17.17;14.05;;;12.60;99.90;;;;;;4991473;28;20065;-64
2022/04/05 10:31:36;;;;;;;19.77;15.23;;;12.50;99.90;;;;;;4992539;28;20030;-63
2022/04/05 10:34:11;;;;;;;18.88;16.10;;;12.50;99.90;;;;;;4991913;28;20030;-65
2022/04/05 10:36:37;;;;;;;18.05;15.50;;;12.50;99.90;;;;;;4991852;28;20109;-66
2022/04/05 10:39:17;;;;;;;17.70;13.90;;;12.50;99.90;;;;;;4991896;28;20106;-65
2022/04/05 10:42:09;;;;;;;17.25;15.27;;;12.40;99.90;;;;;;4991957;28;20023;-63
2022/04/05 10:44:36;;;;;;;16.00;14.43;;;12.30;99.90;;;;;;4994224;28;20034;-65
2022/04/05 10:47:06;;;;;;;18.17;14.13;;;12.40;99.90;;;;;;4990016;28;20030;-65
2022/04/05 10:49:39;;;;;;;15.55;12.30;;;12.40;99.90;;;;;;4991270;28;20062;-64
2022/04/05 10:52:10;;;;;;;17.77;12.80;;;12.60;99.90;;;;;;4991187;28;20022;-64
2022/04/05 10:54:42;;;;;;;18.00;13.77;;;12.60;99.90;;;;;;4991386;28;20390;-65
2022/04/05 10:57:17;;;;;;;15.23;13.48;;;12.40;99.90;;;;;;4991324;28;20121;-64
2022/04/05 10:59:48;;;;;;;17.23;15.48;;;12.20;99.90;;;;;;4991200;28;20062;-64
2022/04/05 11:02:33;;;;;;;19.30;14.43;;;12.00;99.90;;;;;;4992394;28;20049;-63
2022/04/05 11:05:02;;;;;;;22.17;14.80;;;12.00;99.90;;;;;;4991305;28;20018;-63
2022/04/05 11:07:29;;;;;;;15.48;13.90;;;12.10;99.90;;;;;;4991526;28;20033;-65
2022/04/05 11:09:59;;;;;;;20.27;13.63;;;12.20;99.90;;;;;;4991695;28;20108;-64
2022/04/05 11:12:30;;;;;;;24.95;16.90;;;12.30;99.90;;;;;;4992036;28;20030;-64
2022/04/05 11:15:03;;;;;;;20.40;16.73;;;12.30;99.90;;;;;;4991465;28;20385;-63
2022/04/05 11:17:31;;;;;;;30.83;20.00;;;12.40;99.90;;;;;;4989651;28;20030;-64
2022/04/05 11:19:59;;;;;;;18.25;16.35;;;12.40;99.90;;;;;;4990756;28;20482;-64
2022/04/05 11:22:30;;;;;;;24.65;16.08;;;12.60;99.90;;;;;;4989578;28;20041;-64
2022/04/05 11:25:07;;;;;;;19.40;16.85;;;12.60;99.90;;;;;;4994368;28;20506;-65
2022/04/05 11:27:38;;;;;;;27.73;20.75;;;12.70;99.90;;;;;;4994578;28;20490;-64
2022/04/05 11:30:27;;;;;;;19.85;17.23;;;12.70;99.90;;;;;;4994528;28;20371;-64
2022/04/05 11:33:12;;;;;;;22.55;17.75;;;12.70;99.90;;;;;;4993990;28;20091;-65
2022/04/05 11:35:38;;;;;;;19.52;16.75;;;12.60;99.90;;;;;;4993840;28;20544;-63
2022/04/05 11:38:05;;;;;;;21.85;19.08;;;12.70;99.90;;;;;;4994150;28;20034;-64
2022/04/05 11:40:32;;;;;;;27.92;19.88;;;12.60;99.90;;;;;;4992585;28;20018;-64
2022/04/05 11:43:03;;;;;;;21.20;18.67;;;12.60;99.90;;;;;;4993977;28;20102;-64
2022/04/05 11:45:29;;;;;;;30.90;19.40;;;12.50;99.90;;;;;;4993999;28;20176;-65
2022/04/05 11:47:56;;;;;;;22.45;18.85;;;12.60;99.90;;;;;;4993879;28;20014;-64
2022/04/05 11:50:23;;;;;;;26.52;20.20;;;12.70;99.90;;;;;;4993900;28;20022;-65
2022/04/05 11:52:49;;;;;;;26.08;19.00;;;12.60;99.90;;;;;;4994042;28;20478;-65
2022/04/05 11:58:09;;;;;;;23.15;19.90;;;12.80;99.90;;;;;;4994006;28;20042;-64
2022/04/05 12:00:50;;;;;;;27.55;21.33;;;12.90;99.90;;;;;;4993656;28;20025;-65
2022/04/05 12:03:16;;;;;;;23.10;20.90;;;12.70;99.90;;;;;;4993878;28;20479;-65
2022/04/05 12:05:43;;;;;;;21.80;19.75;;;12.80;99.90;;;;;;4993870;28;20031;-65
2022/04/05 12:08:10;;;;;;;27.13;24.35;;;12.90;99.90;;;;;;4993793;28;20070;-64
2022/04/05 12:10:40;;;;;;;26.05;22.75;;;12.90;99.90;;;;;;4993323;28;20407;-64
2022/04/05 12:13:06;;;;;;;35.10;23.88;;;12.90;99.90;;;;;;4993658;28;20034;-64
2022/04/05 12:15:33;;;;;;;25.08;22.25;;;12.80;99.90;;;;;;4993590;28;20036;-64
2022/04/05 12:18:19;;;;;;;23.38;20.92;;;12.80;99.90;;;;;;4993383;28;20041;-65
2022/04/05 12:20:53;;;;;;;26.52;20.88;;;12.80;99.90;;;;;;4992332;28;20022;-65
2022/04/05 12:23:24;;;;;;;29.25;22.10;;;13.00;99.90;;;;;;4993551;28;20026;-64
2022/04/05 12:26:14;;;;;;;24.95;21.77;;;13.00;99.90;;;;;;4993462;28;20435;-64
2022/04/05 12:28:45;;;;;;;22.63;20.02;;;13.00;99.90;;;;;;4993811;28;20034;-65
2022/04/05 12:31:17;;;;;;;21.92;19.90;;;12.70;99.90;;;;;;4993753;28;20407;-66
2022/04/05 12:33:56;;;;;;;32.65;20.30;;;12.80;99.90;;;;;;4993598;28;20054;-64
2022/04/05 12:36:23;;;;;;;30.20;20.50;;;13.10;99.90;;;;;;4994213;28;20030;-64
2022/04/05 12:38:49;;;;;;;24.40;21.88;;;13.20;99.90;;;;;;4993515;28;20019;-64
2022/04/05 12:41:19;;;;;;;24.60;22.02;;;13.10;99.90;;;;;;4993681;28;20442;-64
2022/04/05 12:44:02;;;;;;;24.60;21.95;;;12.80;99.90;;;;;;4993633;28;20070;-65
2022/04/05 12:46:36;;;;;;;23.30;21.13;;;12.90;99.90;;;;;;4993234;28;20026;-65